createdAt,value
2019-05-13T03:46:05.787Z,7.00
2019-05-13T03:48:37.923Z,7.10
2019-05-13T03:51:07.644Z,7.10
2019-05-13T03:53:36.129Z,7.20
2019-05-13T03:56:04.972Z,7.20
2019-05-13T03:58:33.548Z,7.20
2019-05-13T04:01:03.065Z,7.20
2019-05-13T04:03:33.238Z,7.20
2019-05-13T04:06:03.646Z,7.20
2019-05-13T04:08:32.780Z,7.30
2019-05-13T04:11:02.970Z,7.30
2019-05-13T04:13:33.419Z,7.30
2019-05-13T04:16:03.907Z,7.30
2019-05-13T04:18:32.774Z,7.30
2019-05-13T04:21:02.727Z,7.20
2019-05-13T04:23:32.476Z,7.20
2019-05-13T04:26:02.971Z,7.20
2019-05-13T04:28:32.970Z,7.20
2019-05-13T04:31:03.495Z,7.20
2019-05-13T04:33:33.369Z,7.20
2019-05-13T04:36:02.757Z,7.20
2019-05-13T04:38:33.014Z,7.20
2019-05-13T04:41:03.423Z,7.30
2019-05-13T04:43:34.816Z,7.40
2019-05-13T04:46:02.777Z,7.50
2019-05-13T04:48:34.026Z,7.60
2019-05-13T04:51:03.003Z,7.60
2019-05-13T04:53:33.394Z,7.60
2019-05-13T04:56:03.254Z,7.60
2019-05-13T04:58:32.406Z,7.60
2019-05-13T05:01:23.996Z,8.00
2019-05-13T05:04:27.356Z,8.00
2019-05-13T05:07:03.650Z,8.00
2019-05-13T05:10:15.971Z,8.10
2019-05-13T05:12:48.231Z,8.20
2019-05-13T05:15:25.320Z,8.20
2019-05-13T05:18:11.754Z,8.30
2019-05-13T05:20:46.541Z,8.40
2019-05-13T05:23:33.276Z,8.40
2019-05-13T05:26:16.577Z,8.40
2019-05-13T05:29:04.894Z,8.50
2019-05-13T05:31:54.127Z,8.50
2019-05-13T05:34:41.810Z,8.70
2019-05-13T05:37:22.483Z,8.70
2019-05-13T05:39:54.027Z,8.70
2019-05-13T05:42:24.753Z,8.70
2019-05-13T05:44:54.995Z,8.80
2019-05-13T05:47:25.627Z,8.80
2019-05-13T05:49:55.684Z,9.00
2019-05-13T05:52:26.087Z,9.10
2019-05-13T05:54:54.683Z,9.30
2019-05-13T05:57:25.843Z,9.40
2019-05-13T05:59:55.984Z,9.50
2019-05-13T06:02:27.219Z,9.70
2019-05-13T06:04:57.203Z,9.80
2019-05-13T06:07:25.751Z,9.80
2019-05-13T06:09:54.247Z,10.00
2019-05-13T06:12:23.117Z,10.10
2019-05-13T06:14:52.391Z,10.00
2019-05-13T06:17:21.872Z,10.20
2019-05-13T06:19:51.321Z,10.30
2019-05-13T06:22:21.686Z,10.30
2019-05-13T06:24:52.157Z,10.20
2019-05-13T06:27:21.402Z,10.30
2019-05-13T06:29:52.642Z,10.50
2019-05-13T06:32:25.875Z,10.40
2019-05-13T06:34:52.494Z,10.40
2019-05-13T06:37:21.777Z,10.50
2019-05-13T06:39:51.237Z,10.70
2019-05-13T06:42:22.042Z,10.70
2019-05-13T06:44:51.421Z,10.70
2019-05-13T06:47:21.977Z,10.90
2019-05-13T06:49:51.593Z,11.00
2019-05-13T06:52:21.195Z,11.10
2019-05-13T06:54:51.975Z,11.20
2019-05-13T06:57:21.952Z,11.20
2019-05-13T06:59:52.343Z,11.20
2019-05-13T07:02:21.620Z,11.20
2019-05-13T07:04:51.627Z,11.20
2019-05-13T07:07:21.951Z,11.30
2019-05-13T07:09:51.751Z,11.40
2019-05-13T07:12:21.936Z,11.60
2019-05-13T07:14:51.788Z,11.70
2019-05-13T07:17:22.278Z,11.90
2019-05-13T07:19:51.712Z,11.80
2019-05-13T07:22:22.986Z,11.90
2019-05-13T07:24:51.940Z,12.00
2019-05-13T07:27:22.900Z,12.10
2019-05-13T07:29:51.482Z,12.20
2019-05-13T07:32:22.132Z,12.10
2019-05-13T07:34:53.150Z,12.20
2019-05-13T07:37:21.904Z,12.10
2019-05-13T07:39:53.033Z,12.20
2019-05-13T07:42:22.202Z,12.20
2019-05-13T07:44:52.229Z,12.50
2019-05-13T07:47:22.267Z,12.60
2019-05-13T07:49:51.544Z,12.80
2019-05-13T07:52:22.546Z,12.80
2019-05-13T07:54:52.089Z,12.90
2019-05-13T07:57:21.513Z,12.90
2019-05-13T07:59:52.202Z,13.00
2019-05-13T08:02:21.679Z,12.90
2019-05-13T08:04:53.096Z,12.90
2019-05-13T08:07:22.665Z,13.10
2019-05-13T08:09:51.782Z,13.20
2019-05-13T08:12:21.629Z,13.40
2019-05-13T08:14:52.128Z,13.80
2019-05-13T08:17:22.535Z,13.80
2019-05-13T08:19:52.034Z,13.90
2019-05-13T08:22:22.135Z,14.10
2019-05-13T08:24:53.809Z,14.20
2019-05-13T08:27:29.794Z,14.20
2019-05-13T08:29:52.201Z,14.20
2019-05-13T08:32:22.146Z,14.20
2019-05-13T08:34:54.323Z,14.30
2019-05-13T08:37:21.707Z,14.20
2019-05-13T08:39:52.171Z,14.30
2019-05-13T08:42:23.386Z,14.70
2019-05-13T08:44:52.298Z,14.70
2019-05-13T08:47:22.471Z,15.00
2019-05-13T08:49:52.084Z,15.20
2019-05-13T08:52:21.936Z,15.30
2019-05-13T08:54:52.377Z,15.30
2019-05-13T08:57:22.126Z,15.60
2019-05-13T08:59:51.555Z,15.80
2019-05-13T09:02:22.123Z,15.80
2019-05-13T09:04:51.442Z,15.80
2019-05-13T09:07:23.933Z,15.80
2019-05-13T09:09:51.283Z,16.10
2019-05-13T09:12:29.587Z,16.70
2019-05-13T09:14:52.390Z,17.00
2019-05-13T09:17:21.338Z,17.10
2019-05-13T09:19:51.971Z,17.60
2019-05-13T09:22:21.329Z,17.60
2019-05-13T09:24:52.655Z,17.30
2019-05-13T09:27:22.396Z,16.90
2019-05-13T09:29:51.805Z,16.70
2019-05-13T09:32:21.579Z,17.10
2019-05-13T09:34:52.433Z,17.30
2019-05-13T09:37:22.418Z,17.70
2019-05-13T09:39:51.663Z,17.70
2019-05-13T09:42:21.625Z,17.50
2019-05-13T09:44:52.587Z,17.40
2019-05-13T09:47:21.682Z,17.30
2019-05-13T09:49:50.382Z,17.50
2019-05-13T09:52:18.832Z,17.20
2019-05-13T09:54:47.301Z,16.90
2019-05-13T09:57:15.797Z,16.80
2019-05-13T09:59:44.333Z,16.60
2019-05-13T10:02:12.814Z,16.70
2019-05-13T10:04:43.643Z,17.20
2019-05-13T10:07:12.527Z,17.30
2019-05-13T10:09:42.915Z,17.10
2019-05-13T10:12:12.247Z,17.80
2019-05-13T10:14:41.043Z,18.50
2019-05-13T10:17:09.575Z,19.40
2019-05-13T10:19:38.055Z,19.50
2019-05-13T10:22:06.668Z,19.50
2019-05-13T10:24:35.227Z,18.60
2019-05-13T10:27:03.973Z,18.10
2019-05-13T10:29:33.032Z,17.50
2019-05-13T10:32:02.771Z,17.30
2019-05-13T10:34:33.161Z,16.70
2019-05-13T10:37:02.738Z,16.10
2019-05-13T10:39:31.632Z,15.80
2019-05-13T10:42:03.034Z,15.80
2019-05-13T10:44:30.354Z,16.20
2019-05-13T10:46:59.055Z,17.10
2019-05-13T10:49:27.580Z,17.90
2019-05-13T10:51:56.089Z,17.70
2019-05-13T10:54:24.554Z,17.40
2019-05-13T10:56:58.962Z,16.90
2019-05-13T10:59:23.407Z,16.40
2019-05-13T11:01:51.936Z,16.20
2019-05-13T11:04:22.235Z,16.00
2019-05-13T11:06:52.419Z,15.90
2019-05-13T11:09:22.089Z,15.80
2019-05-13T11:11:52.853Z,16.60
2019-05-13T11:14:22.052Z,17.50
2019-05-13T11:16:52.282Z,17.60
2019-05-13T11:19:23.215Z,17.50
2019-05-13T11:21:51.587Z,17.30
2019-05-13T11:24:22.138Z,17.10
2019-05-13T11:26:52.246Z,16.50
2019-05-13T11:29:22.958Z,16.60
2019-05-13T11:31:52.559Z,16.50
2019-05-13T11:34:22.121Z,16.30
2019-05-13T11:36:53.111Z,16.20
2019-05-13T11:39:21.873Z,15.90
2019-05-13T11:41:50.726Z,15.80
2019-05-13T11:44:19.330Z,15.70
2019-05-13T11:46:48.711Z,15.60
2019-05-13T11:49:17.292Z,15.60
2019-05-13T11:51:46.054Z,15.60
2019-05-13T11:54:14.611Z,15.40
2019-05-13T11:56:49.349Z,15.30
2019-05-13T11:59:14.036Z,15.60
2019-05-13T12:01:43.095Z,15.60
2019-05-13T12:04:11.652Z,15.70
2019-05-13T12:06:47.974Z,15.70
2019-05-13T12:09:13.123Z,15.80
2019-05-13T12:11:40.637Z,16.10
2019-05-13T12:14:34.777Z,16.30
2019-05-13T12:16:41.587Z,16.50
2019-05-13T12:19:11.833Z,16.30
2019-05-13T12:24:11.316Z,15.80
2019-05-13T12:26:43.089Z,15.70
2019-05-13T12:29:18.327Z,15.60
2019-05-13T12:31:40.318Z,15.60
2019-05-13T12:34:12.765Z,15.30
2019-05-13T12:36:42.434Z,15.30
2019-05-13T12:39:13.810Z,15.20
2019-05-13T12:41:42.065Z,15.40
2019-05-13T12:44:12.712Z,15.50
2019-05-13T12:46:42.421Z,15.70
2019-05-13T12:49:13.911Z,15.90
2019-05-13T12:51:43.629Z,16.10
2019-05-13T12:54:13.523Z,16.30
2019-05-13T12:56:42.621Z,16.50
2019-05-13T12:59:13.134Z,16.40
2019-05-13T13:01:41.396Z,16.40
2019-05-13T13:04:12.331Z,16.20
2019-05-13T13:06:44.825Z,15.70
2019-05-13T13:09:12.673Z,15.50
2019-05-13T13:11:43.469Z,15.40
2019-05-13T13:14:15.115Z,15.30
2019-05-13T13:16:42.537Z,15.20
2019-05-13T13:21:41.625Z,15.00
2019-05-13T13:24:12.291Z,15.30
2019-05-13T13:26:42.736Z,15.60
2019-05-13T13:29:10.486Z,16.00
2019-05-13T13:31:42.724Z,16.30
2019-05-13T13:36:45.256Z,16.70
2019-05-13T13:39:13.746Z,16.90
2019-05-13T13:41:43.407Z,17.20
2019-05-13T13:44:12.351Z,17.70
2019-05-13T13:46:44.497Z,18.00
2019-05-13T13:49:12.948Z,17.90
2019-05-13T13:51:44.721Z,17.40
2019-05-13T13:54:11.128Z,17.10
2019-05-13T13:56:42.819Z,16.90
2019-05-13T13:59:12.874Z,16.80
2019-05-13T14:01:40.218Z,16.60
2019-05-13T14:04:08.744Z,16.80
2019-05-13T14:06:32.107Z,16.00
2019-05-13T14:06:52.388Z,14.90
2019-05-13T14:07:13.230Z,16.60
2019-05-13T14:09:07.585Z,17.60
2019-05-13T14:11:36.144Z,17.60
2019-05-13T14:14:04.824Z,17.60
2019-05-13T14:16:35.237Z,17.40
2019-05-13T14:19:03.835Z,17.20
2019-05-13T14:21:32.545Z,16.90
2019-05-13T14:24:02.636Z,16.60
2019-05-13T14:26:33.149Z,16.40
2019-05-13T14:29:02.597Z,16.30
2019-05-13T14:31:32.368Z,16.20
2019-05-13T14:34:03.401Z,16.20
2019-05-13T14:36:31.283Z,16.10
2019-05-13T14:39:02.585Z,16.30
2019-05-13T14:41:31.238Z,16.30
2019-05-13T14:43:59.872Z,16.20
2019-05-13T14:46:43.966Z,16.20
2019-05-13T14:48:58.481Z,16.20
2019-05-13T14:51:26.916Z,16.20
2019-05-13T14:53:55.344Z,16.40
2019-05-13T14:56:23.944Z,16.60
2019-05-13T14:58:52.412Z,16.80
2019-05-13T15:01:22.762Z,17.00
2019-05-13T15:03:51.940Z,17.20
2019-05-13T15:06:22.041Z,17.60
2019-05-13T15:08:52.598Z,17.70
2019-05-13T15:11:22.017Z,17.40
2019-05-13T15:13:51.785Z,17.30
2019-05-13T15:16:22.416Z,17.50
2019-05-13T15:18:52.463Z,17.80
2019-05-13T15:21:21.391Z,18.00
2019-05-13T15:23:51.765Z,18.20
2019-05-13T15:26:22.199Z,18.20
2019-05-13T15:28:51.842Z,17.80
2019-05-13T15:31:22.108Z,17.40
2019-05-13T15:33:52.352Z,16.80
2019-05-13T15:36:22.566Z,16.60
2019-05-13T15:38:51.997Z,16.90
2019-05-13T15:41:20.696Z,17.30
2019-05-13T15:43:51.284Z,17.30
2019-05-13T15:46:21.785Z,17.40
2019-05-13T15:48:51.360Z,17.60
2019-05-13T15:51:21.883Z,17.60
2019-05-13T15:53:51.779Z,17.50
2019-05-13T15:56:22.407Z,17.30
2019-05-13T15:58:52.668Z,17.00
2019-05-13T16:01:22.986Z,16.50
2019-05-13T16:03:52.556Z,16.30
2019-05-13T16:06:20.819Z,16.20
2019-05-13T16:08:51.763Z,16.10
2019-05-13T16:11:21.715Z,15.80
2019-05-13T16:13:51.799Z,15.70
2019-05-13T16:16:22.061Z,16.00
2019-05-13T16:18:51.468Z,16.30
2019-05-13T16:21:20.122Z,16.50
2019-05-13T16:23:48.655Z,16.70
2019-05-13T16:26:17.165Z,17.00
2019-05-13T16:28:45.851Z,17.20
2019-05-13T16:31:14.333Z,17.10
2019-05-13T16:33:42.787Z,16.90
2019-05-13T16:36:12.609Z,16.70
2019-05-13T16:38:41.918Z,16.60
2019-05-13T16:41:12.384Z,16.40
2019-05-13T16:43:42.621Z,16.30
2019-05-13T16:46:12.248Z,16.30
2019-05-13T16:48:41.584Z,16.30
2019-05-13T16:51:12.547Z,16.50
2019-05-13T16:53:42.117Z,16.60
2019-05-13T16:56:25.327Z,16.90
2019-05-13T16:58:41.789Z,17.30
2019-05-13T17:01:11.868Z,17.40
2019-05-13T17:03:41.446Z,17.50
2019-05-13T17:06:12.451Z,17.10
2019-05-13T17:08:42.474Z,16.40
2019-05-13T17:11:11.878Z,16.10
2019-05-13T17:13:42.367Z,16.10
2019-05-13T17:16:11.103Z,16.30
2019-05-13T17:18:41.707Z,16.40
2019-05-13T17:21:10.865Z,16.50
2019-05-13T17:23:41.641Z,16.40
2019-05-13T17:26:11.627Z,16.50
2019-05-13T17:28:41.651Z,16.60
2019-05-13T17:31:11.569Z,16.40
2019-05-13T17:33:40.289Z,16.40
2019-05-13T17:36:08.829Z,16.40
2019-05-13T17:38:37.359Z,16.30
2019-05-13T17:41:05.789Z,16.50
2019-05-13T17:43:34.280Z,16.40
2019-05-13T17:46:02.822Z,16.30
2019-05-13T17:48:33.415Z,16.10
2019-05-13T17:51:01.626Z,15.90
2019-05-13T17:53:32.501Z,15.70
2019-05-13T17:56:02.345Z,15.70
2019-05-13T17:58:31.399Z,15.70
2019-05-13T18:01:01.770Z,15.70
2019-05-13T18:03:31.952Z,15.60
2019-05-13T18:06:02.423Z,15.50
2019-05-13T18:08:31.992Z,15.50
2019-05-13T18:11:02.168Z,15.30
2019-05-13T18:13:31.517Z,15.20
2019-05-13T18:16:02.451Z,15.10
2019-05-13T18:18:40.382Z,14.90
2019-05-13T18:21:01.451Z,14.80
2019-05-13T18:23:30.219Z,14.70
2019-05-13T18:26:01.725Z,14.60
2019-05-13T18:28:31.415Z,14.50
2019-05-13T18:31:01.489Z,14.30
2019-05-13T18:33:31.701Z,14.20
2019-05-13T18:36:01.752Z,14.10
2019-05-13T18:38:31.319Z,14.00
2019-05-13T18:41:01.771Z,13.90
2019-05-13T18:43:32.058Z,13.80
2019-05-13T18:46:02.047Z,13.70
2019-05-13T18:48:32.267Z,13.60
2019-05-13T18:51:01.495Z,13.40
2019-05-13T18:53:32.027Z,13.30
2019-05-13T18:56:01.957Z,13.20
2019-05-13T18:58:31.891Z,13.10
2019-05-13T19:01:01.364Z,13.00
2019-05-13T19:03:32.341Z,12.90
2019-05-13T19:06:00.324Z,12.80
2019-05-13T19:08:28.820Z,12.70
2019-05-13T19:10:57.427Z,12.50
2019-05-13T19:13:26.041Z,12.30
2019-05-13T19:15:54.504Z,12.10
2019-05-13T19:18:23.023Z,12.00
2019-05-13T19:20:51.465Z,11.90
2019-05-13T19:23:20.778Z,11.90
2019-05-13T19:25:51.226Z,11.80
2019-05-13T19:28:22.241Z,11.70
2019-05-13T19:30:51.638Z,11.60
2019-05-13T19:33:22.122Z,11.60
2019-05-13T19:35:51.841Z,11.40
2019-05-13T19:38:21.190Z,11.30
2019-05-13T19:40:49.749Z,11.10
2019-05-13T19:43:21.724Z,11.00
2019-05-13T19:45:51.896Z,10.80
2019-05-13T19:48:21.778Z,10.70
2019-05-13T19:50:52.136Z,10.80
2019-05-13T19:53:21.286Z,10.80
2019-05-13T19:55:51.865Z,10.70
2019-05-13T19:58:21.602Z,10.70
2019-05-13T20:00:51.588Z,10.50
2019-05-13T20:03:22.623Z,10.50
2019-05-13T20:05:51.397Z,10.50
2019-05-13T20:08:21.193Z,10.60
2019-05-13T20:10:51.470Z,10.50
2019-05-13T20:13:21.762Z,10.40
2019-05-13T20:15:51.827Z,10.40
2019-05-13T20:18:22.889Z,10.30
2019-05-13T20:20:51.912Z,10.30
2019-05-13T20:23:21.320Z,10.30
2019-05-13T20:25:52.270Z,10.20
2019-05-13T20:28:20.986Z,10.10
2019-05-13T20:30:51.188Z,10.00
2019-05-13T20:33:22.031Z,10.00
2019-05-13T20:35:49.965Z,9.90
2019-05-13T20:38:22.142Z,9.70
2019-05-13T20:40:51.969Z,9.70
2019-05-13T20:43:22.482Z,9.50
2019-05-13T20:45:51.827Z,9.50
2019-05-13T20:48:21.261Z,9.50
2019-05-13T20:50:51.949Z,9.50
2019-05-13T20:53:21.789Z,9.40
2019-05-13T20:55:53.476Z,9.40
2019-05-13T20:58:23.377Z,9.50
2019-05-13T21:00:53.671Z,9.60
2019-05-13T21:03:22.216Z,9.40
2019-05-13T21:05:52.086Z,9.30
2019-05-13T21:08:21.682Z,9.30
2019-05-13T21:10:51.682Z,9.20
2019-05-13T21:13:21.177Z,9.10
2019-05-13T21:15:51.928Z,9.10
2019-05-13T21:18:22.012Z,9.10
2019-05-13T21:20:50.059Z,9.10
2019-05-13T21:23:18.601Z,9.10
2019-05-13T21:25:50.911Z,9.10
2019-05-13T21:28:18.853Z,9.00
2019-05-13T21:30:47.427Z,9.10
2019-05-13T21:33:15.867Z,9.00
2019-05-13T21:35:44.293Z,9.00
2019-05-13T21:38:12.770Z,8.90
2019-05-13T21:40:41.677Z,8.80
2019-05-13T21:43:10.183Z,8.80
2019-05-13T21:45:38.635Z,8.70
2019-05-13T21:48:07.111Z,8.70
2019-05-13T21:50:37.371Z,8.60
2019-05-13T21:53:05.683Z,8.70
2019-05-13T21:55:34.487Z,8.50
2019-05-13T21:58:03.383Z,8.50
2019-05-13T22:00:51.991Z,8.40
2019-05-13T22:03:20.775Z,8.30
2019-05-13T22:05:51.326Z,8.30
2019-05-13T22:08:21.380Z,8.40
2019-05-13T22:10:49.571Z,8.40
2019-05-13T22:13:18.005Z,8.40
2019-05-13T22:15:46.423Z,8.40
2019-05-13T22:18:14.866Z,8.30
2019-05-13T22:20:49.977Z,8.20
2019-05-13T22:23:13.452Z,8.40
2019-05-13T22:25:43.802Z,8.40
2019-05-13T22:28:12.057Z,8.30
2019-05-13T22:30:41.235Z,8.20
2019-05-13T22:33:12.147Z,8.00
2019-05-13T22:35:41.603Z,8.00
2019-05-13T22:38:12.316Z,7.90
2019-05-13T22:40:41.941Z,7.90
2019-05-13T22:43:12.207Z,8.00
2019-05-13T22:45:41.986Z,7.90
2019-05-13T22:48:14.632Z,7.90
2019-05-13T22:50:42.403Z,7.90
2019-05-13T22:53:12.010Z,8.00
2019-05-13T22:55:41.819Z,8.10
2019-05-13T22:58:10.415Z,8.10
